createdAt,value
2018-01-21T00:01:19.398Z,2.60
2018-01-21T00:03:46.860Z,2.60
2018-01-21T00:06:14.334Z,2.60
2018-01-21T00:08:41.789Z,2.60
2018-01-21T00:11:09.258Z,2.60
2018-01-21T00:13:36.738Z,2.70
2018-01-21T00:16:04.975Z,2.60
2018-01-21T00:18:32.453Z,2.60
2018-01-21T00:21:00.682Z,2.60
2018-01-21T00:23:28.173Z,2.60
2018-01-21T00:25:56.632Z,2.60
2018-01-21T00:28:24.102Z,2.70
2018-01-21T00:30:51.566Z,2.60
2018-01-21T00:33:19.155Z,2.70
2018-01-21T00:35:47.385Z,2.70
2018-01-21T00:38:14.870Z,2.70
2018-01-21T00:40:42.472Z,2.70
2018-01-21T00:43:09.930Z,2.70
2018-01-21T00:45:37.417Z,2.70
2018-01-21T00:48:04.882Z,2.70
2018-01-21T00:50:32.398Z,2.70
2018-01-21T00:52:59.856Z,2.70
2018-01-21T00:55:27.334Z,2.70
2018-01-21T00:57:54.799Z,2.60
2018-01-21T01:00:22.254Z,2.60
2018-01-21T01:02:49.738Z,2.60
2018-01-21T01:05:17.965Z,2.50
2018-01-21T01:07:45.463Z,2.50
2018-01-21T01:10:12.917Z,2.60
2018-01-21T01:12:40.381Z,2.60
2018-01-21T01:15:07.874Z,2.60
2018-01-21T01:17:37.594Z,2.60
2018-01-21T01:20:05.153Z,2.60
2018-01-21T01:22:32.626Z,2.60
2018-01-21T01:25:00.110Z,2.60
2018-01-21T01:27:27.566Z,2.60
2018-01-21T01:29:55.045Z,2.50
2018-01-21T01:32:29.005Z,2.60
2018-01-21T01:34:56.481Z,2.60
2018-01-21T01:37:23.946Z,2.60
2018-01-21T01:39:51.455Z,2.60
2018-01-21T01:42:18.913Z,2.60
2018-01-21T01:44:46.389Z,2.60
2018-01-21T01:47:13.870Z,2.60
2018-01-21T01:49:41.325Z,2.60
2018-01-21T01:52:08.817Z,2.60
2018-01-21T01:54:37.055Z,2.60
2018-01-21T01:57:04.529Z,2.60
2018-01-21T01:59:32.766Z,2.60
2018-01-21T02:02:00.250Z,2.60
2018-01-21T02:04:27.722Z,2.60
2018-01-21T02:06:56.034Z,2.60
2018-01-21T02:09:23.512Z,2.60
2018-01-21T02:11:50.968Z,2.60
2018-01-21T02:14:18.457Z,2.50
2018-01-21T02:16:45.933Z,2.50
2018-01-21T02:19:14.165Z,2.50
2018-01-21T02:21:41.637Z,2.50
2018-01-21T02:24:09.114Z,2.50
2018-01-21T02:26:37.361Z,2.50
2018-01-21T02:29:04.833Z,2.40
2018-01-21T02:31:32.294Z,2.50
2018-01-21T02:34:00.529Z,2.50
2018-01-21T02:36:28.005Z,2.50
2018-01-21T02:38:56.343Z,2.50
2018-01-21T02:41:23.813Z,2.50
2018-01-21T02:43:51.278Z,2.50
2018-01-21T02:46:18.746Z,2.50
2018-01-21T02:48:46.271Z,2.40
2018-01-21T02:51:13.742Z,2.40
2018-01-21T02:53:41.235Z,2.40
2018-01-21T02:56:08.697Z,2.40
2018-01-21T02:58:36.941Z,2.30
2018-01-21T03:01:04.415Z,2.30
2018-01-21T03:03:31.889Z,2.30
2018-01-21T03:06:00.205Z,2.30
2018-01-21T03:08:27.681Z,2.30
2018-01-21T03:10:57.250Z,2.30
2018-01-21T03:13:25.477Z,2.30
2018-01-21T03:15:53.307Z,2.30
2018-01-21T03:18:20.867Z,2.30
2018-01-21T03:20:48.329Z,2.20
2018-01-21T03:23:15.801Z,2.20
2018-01-21T03:25:43.294Z,2.10
2018-01-21T03:28:11.518Z,2.00
2018-01-21T03:30:38.977Z,2.00
2018-01-21T03:33:06.465Z,1.90
2018-01-21T03:35:33.926Z,1.90
2018-01-21T03:38:01.434Z,2.00
2018-01-21T03:40:28.994Z,2.00
2018-01-21T03:42:56.444Z,2.00
2018-01-21T03:45:23.929Z,2.00
2018-01-21T03:47:51.389Z,1.90
2018-01-21T03:50:18.866Z,1.90
2018-01-21T03:52:46.326Z,1.80
2018-01-21T03:55:13.793Z,1.80
2018-01-21T03:57:42.027Z,1.70
2018-01-21T04:00:09.509Z,1.70
2018-01-21T04:02:36.969Z,1.70
2018-01-21T04:05:04.436Z,1.60
2018-01-21T04:07:32.684Z,1.50
2018-01-21T04:10:00.211Z,1.50
2018-01-21T04:12:27.673Z,1.40
2018-01-21T04:14:55.139Z,1.50
2018-01-21T04:17:22.619Z,1.40
2018-01-21T04:19:50.086Z,1.40
2018-01-21T04:22:17.554Z,1.40
2018-01-21T04:24:45.785Z,1.30
2018-01-21T04:27:13.261Z,1.30
2018-01-21T04:29:40.782Z,1.30
2018-01-21T04:32:08.236Z,1.30
2018-01-21T04:34:35.722Z,1.30
2018-01-21T04:37:03.201Z,1.30
2018-01-21T04:39:30.670Z,1.30
2018-01-21T04:41:58.909Z,1.20
2018-01-21T04:44:26.386Z,1.20
2018-01-21T04:46:53.849Z,1.20
2018-01-21T04:49:21.335Z,1.10
2018-01-21T04:51:48.797Z,1.10
2018-01-21T04:54:16.269Z,1.10
2018-01-21T04:56:43.750Z,1.10
2018-01-21T04:59:11.243Z,1.20
2018-01-21T05:01:38.735Z,1.20
2018-01-21T05:04:06.293Z,1.20
2018-01-21T05:06:33.761Z,1.10
2018-01-21T05:09:01.238Z,1.00
2018-01-21T05:11:28.764Z,1.00
2018-01-21T05:13:56.222Z,1.00
2018-01-21T05:16:23.694Z,0.90
2018-01-21T05:18:51.159Z,0.90
2018-01-21T05:21:18.625Z,0.90
2018-01-21T05:23:46.111Z,0.90
2018-01-21T05:26:14.352Z,0.80
2018-01-21T05:28:41.826Z,0.80
2018-01-21T05:31:09.294Z,0.70
2018-01-21T05:33:37.533Z,0.60
2018-01-21T05:36:05.006Z,0.60
2018-01-21T05:38:32.526Z,0.70
2018-01-21T05:40:59.994Z,0.70
2018-01-21T05:43:27.490Z,0.70
2018-01-21T05:45:55.744Z,0.70
2018-01-21T05:48:23.201Z,0.70
2018-01-21T05:50:50.685Z,0.70
2018-01-21T05:53:18.933Z,0.70
2018-01-21T05:55:50.613Z,0.70
2018-01-21T05:58:18.078Z,0.70
2018-01-21T06:00:46.316Z,0.70
2018-01-21T06:03:13.806Z,0.70
2018-01-21T06:05:42.038Z,0.80
2018-01-21T06:08:09.502Z,0.80
2018-01-21T06:10:36.982Z,0.90
2018-01-21T06:13:05.222Z,1.00
2018-01-21T06:15:32.694Z,1.00
2018-01-21T06:18:00.182Z,1.00
2018-01-21T06:20:28.426Z,0.90
2018-01-21T06:22:55.905Z,0.90
2018-01-21T06:25:23.378Z,1.00
2018-01-21T06:27:51.608Z,0.90
2018-01-21T06:30:19.074Z,0.90
2018-01-21T06:32:46.595Z,0.90
2018-01-21T06:35:14.154Z,0.80
2018-01-21T06:37:41.607Z,0.80
2018-01-21T06:40:09.065Z,0.80
2018-01-21T06:42:36.556Z,0.70
2018-01-21T06:45:04.022Z,0.70
2018-01-21T06:47:31.515Z,0.70
2018-01-21T06:49:58.990Z,0.70
2018-01-21T06:52:26.473Z,0.70
2018-01-21T06:54:53.954Z,0.70
2018-01-21T06:57:25.047Z,0.70
2018-01-21T06:59:52.530Z,0.70
2018-01-21T07:02:19.989Z,0.70
2018-01-21T07:04:47.465Z,0.70
2018-01-21T07:07:15.705Z,0.80
2018-01-21T07:09:43.156Z,0.80
2018-01-21T07:12:10.634Z,0.80
2018-01-21T07:14:38.115Z,0.90
2018-01-21T07:17:05.572Z,0.90
2018-01-21T07:19:33.894Z,1.00
2018-01-21T07:22:01.346Z,1.00
2018-01-21T07:24:28.829Z,0.90
2018-01-21T07:26:56.301Z,1.00
2018-01-21T07:29:23.761Z,1.00
2018-01-21T07:31:52.030Z,0.90
2018-01-21T07:34:19.530Z,0.90
2018-01-21T07:36:46.966Z,0.90
2018-01-21T07:39:15.190Z,0.90
2018-01-21T07:41:42.658Z,0.90
2018-01-21T07:44:10.199Z,1.00
2018-01-21T07:46:37.658Z,1.00
2018-01-21T07:49:05.154Z,1.00
2018-01-21T07:51:32.634Z,1.00
2018-01-21T07:54:00.874Z,0.90
2018-01-21T07:56:28.337Z,0.90
2018-01-21T07:58:56.582Z,1.10
2018-01-21T08:01:24.058Z,1.10
2018-01-21T08:03:52.817Z,1.40
2018-01-21T08:06:20.310Z,1.90
2018-01-21T08:08:47.765Z,2.20
2018-01-21T08:11:15.225Z,2.10
2018-01-21T08:13:43.281Z,2.10
2018-01-21T08:16:11.230Z,2.00
2018-01-21T08:18:38.689Z,2.00
2018-01-21T08:21:06.153Z,2.10
2018-01-21T08:23:33.653Z,2.10
2018-01-21T08:26:01.886Z,2.00
2018-01-21T08:28:30.368Z,1.90
2018-01-21T08:30:57.904Z,2.10
2018-01-21T08:33:25.390Z,2.10
2018-01-21T08:35:58.656Z,2.20
2018-01-21T08:38:31.846Z,2.20
2018-01-21T08:41:05.018Z,2.10
2018-01-21T08:43:32.513Z,1.90
2018-01-21T08:45:59.985Z,1.90
2018-01-21T08:48:27.466Z,1.80
2018-01-21T08:50:55.707Z,2.00
2018-01-21T08:53:23.167Z,2.00
2018-01-21T08:55:51.353Z,2.50
2018-01-21T08:58:19.568Z,2.50
2018-01-21T09:00:48.619Z,2.70
2018-01-21T09:03:16.109Z,2.70
2018-01-21T09:05:44.362Z,2.60
2018-01-21T09:08:11.901Z,2.60
2018-01-21T09:10:39.361Z,2.70
2018-01-21T09:13:06.824Z,2.90
2018-01-21T09:15:34.278Z,2.90
2018-01-21T09:18:01.758Z,2.90
2018-01-21T09:20:36.010Z,3.00
2018-01-21T09:23:03.474Z,3.00
2018-01-21T09:25:31.027Z,3.10
2018-01-21T09:28:02.745Z,3.40
2018-01-21T09:30:31.012Z,4.10
2018-01-21T09:32:59.886Z,4.10
2018-01-21T09:35:28.893Z,5.10
2018-01-21T09:37:57.288Z,5.00
2018-01-21T09:40:25.527Z,5.60
2018-01-21T09:42:53.010Z,5.60
2018-01-21T09:45:22.049Z,5.20
2018-01-21T09:47:51.278Z,4.80
2018-01-21T09:50:18.731Z,4.80
2018-01-21T09:52:47.698Z,5.30
2018-01-21T09:55:15.161Z,5.30
2018-01-21T09:57:43.854Z,5.60
2018-01-21T10:00:12.081Z,5.80
2018-01-21T10:02:42.479Z,5.60
2018-01-21T10:05:11.522Z,4.80
2018-01-21T10:07:39.694Z,4.80
2018-01-21T10:10:07.137Z,4.80
2018-01-21T10:12:39.056Z,5.50
2018-01-21T10:15:06.570Z,6.00
2018-01-21T10:17:34.618Z,5.80
2018-01-21T10:20:02.887Z,5.30
2018-01-21T10:22:32.035Z,5.10
2018-01-21T10:25:00.161Z,5.10
2018-01-21T10:27:27.614Z,5.30
2018-01-21T10:29:56.386Z,7.40
2018-01-21T10:32:24.622Z,8.40
2018-01-21T10:34:54.014Z,8.40
2018-01-21T10:37:21.725Z,8.80
2018-01-21T10:39:49.974Z,7.80
2018-01-21T10:42:18.315Z,7.80
2018-01-21T10:44:45.803Z,7.20
2018-01-21T10:47:13.275Z,7.10
2018-01-21T10:49:40.754Z,7.50
2018-01-21T10:52:09.005Z,8.40
2018-01-21T10:54:37.382Z,8.40
2018-01-21T10:57:04.841Z,8.40
2018-01-21T10:59:33.184Z,8.30
2018-01-21T11:02:00.634Z,7.50
2018-01-21T11:04:28.103Z,7.40
2018-01-21T11:06:55.584Z,7.70
2018-01-21T11:09:24.430Z,7.80
2018-01-21T11:11:52.316Z,7.80
2018-01-21T11:14:19.814Z,8.20
2018-01-21T11:16:48.042Z,8.30
2018-01-21T11:19:15.533Z,8.30
2018-01-21T11:21:43.009Z,8.50
2018-01-21T11:24:11.813Z,9.70
2018-01-21T11:26:39.298Z,9.60
2018-01-21T11:29:06.773Z,10.10
2018-01-21T11:31:34.301Z,9.80
2018-01-21T11:34:04.436Z,10.50
2018-01-21T11:36:31.899Z,11.00
2018-01-21T11:38:59.386Z,10.90
2018-01-21T11:41:26.889Z,10.10
2018-01-21T11:43:54.893Z,10.20
2018-01-21T11:46:22.353Z,10.70
2018-01-21T11:48:50.418Z,11.40
2018-01-21T11:51:17.944Z,10.90
2018-01-21T11:53:45.418Z,11.80
2018-01-21T11:56:13.699Z,11.00
2018-01-21T11:58:42.359Z,11.00
2018-01-21T12:01:09.846Z,11.60
2018-01-21T12:03:37.323Z,12.10
2018-01-21T12:06:04.797Z,12.80
2018-01-21T12:08:32.245Z,12.70
2018-01-21T12:11:00.498Z,12.70
2018-01-21T12:13:27.972Z,12.70
2018-01-21T12:15:57.684Z,11.90
2018-01-21T12:18:25.184Z,11.90
2018-01-21T12:20:53.707Z,12.20
2018-01-21T12:23:21.165Z,12.90
2018-01-21T12:25:49.704Z,12.70
2018-01-21T12:28:17.179Z,12.40
2018-01-21T12:30:44.663Z,12.90
2018-01-21T12:33:12.136Z,11.80
2018-01-21T12:35:39.617Z,10.90
2018-01-21T12:38:08.410Z,9.20
2018-01-21T12:40:36.812Z,9.20
2018-01-21T12:43:04.290Z,8.90
2018-01-21T12:45:31.758Z,8.20
2018-01-21T12:47:59.234Z,7.80
2018-01-21T12:50:27.486Z,7.00
2018-01-21T12:52:54.954Z,7.00
2018-01-21T12:55:23.259Z,6.80
2018-01-21T12:57:51.476Z,6.60
2018-01-21T13:00:18.945Z,6.60
2018-01-21T13:02:46.414Z,7.60
2018-01-21T13:05:13.870Z,9.00
2018-01-21T13:07:41.341Z,10.10
2018-01-21T13:10:09.593Z,11.50
2018-01-21T13:12:37.062Z,11.50
2018-01-21T13:15:06.533Z,10.90
2018-01-21T13:17:34.011Z,10.80
2018-01-21T13:20:02.042Z,10.10
2018-01-21T13:22:30.718Z,9.30
2018-01-21T13:24:58.277Z,8.30
2018-01-21T13:27:25.750Z,7.50
2018-01-21T13:29:53.992Z,6.90
2018-01-21T13:32:21.454Z,6.90
2018-01-21T13:34:48.947Z,7.00
2018-01-21T13:37:16.417Z,7.20
2018-01-21T13:39:43.900Z,7.40
2018-01-21T13:42:12.140Z,7.60
2018-01-21T13:44:39.617Z,7.60
2018-01-21T13:47:07.067Z,7.30
2018-01-21T13:49:34.518Z,7.00
2018-01-21T13:52:01.991Z,6.70
2018-01-21T13:54:29.497Z,6.80
2018-01-21T13:56:56.953Z,6.60
2018-01-21T13:59:24.417Z,6.50
2018-01-21T14:01:51.909Z,6.30
2018-01-21T14:04:19.382Z,6.10
2018-01-21T14:06:46.850Z,5.90
2018-01-21T14:09:15.095Z,5.70
2018-01-21T14:11:42.562Z,5.70
2018-01-21T14:14:10.022Z,5.70
2018-01-21T14:16:38.279Z,5.70
2018-01-21T14:19:05.734Z,5.60
2018-01-21T14:21:33.209Z,5.50
2018-01-21T14:24:01.441Z,5.50
2018-01-21T14:26:28.913Z,5.50
2018-01-21T14:28:56.402Z,5.60
2018-01-21T14:31:24.642Z,5.50
2018-01-21T14:33:52.141Z,5.50
2018-01-21T14:36:19.613Z,5.50
2018-01-21T14:38:47.065Z,5.40
2018-01-21T14:41:14.565Z,5.50
2018-01-21T14:43:42.030Z,5.30
2018-01-21T14:46:09.504Z,5.30
2018-01-21T14:48:37.010Z,5.20
2018-01-21T14:51:04.487Z,5.30
2018-01-21T14:53:31.938Z,5.30
2018-01-21T14:55:59.418Z,5.20
2018-01-21T14:58:26.875Z,5.20
2018-01-21T15:00:54.349Z,5.20
2018-01-21T15:03:22.590Z,5.20
2018-01-21T15:05:50.072Z,5.20
2018-01-21T15:08:17.533Z,5.10
2018-01-21T15:10:44.985Z,5.10
2018-01-21T15:13:12.478Z,5.10
2018-01-21T15:15:39.934Z,5.10
2018-01-21T15:18:07.417Z,5.10
2018-01-21T15:20:34.881Z,5.10
2018-01-21T15:23:02.380Z,5.00
2018-01-21T15:25:29.832Z,5.10
2018-01-21T15:27:57.289Z,5.00
2018-01-21T15:30:25.538Z,4.90
2018-01-21T15:32:53.002Z,4.90
2018-01-21T15:35:20.531Z,4.90
2018-01-21T15:37:48.706Z,4.80
2018-01-21T15:40:16.177Z,4.80
2018-01-21T15:42:43.661Z,4.80
2018-01-21T15:45:11.146Z,4.80
2018-01-21T15:47:39.375Z,4.70
2018-01-21T15:50:06.840Z,4.70
2018-01-21T15:52:34.306Z,4.70
2018-01-21T15:55:02.553Z,4.60
2018-01-21T15:57:30.049Z,4.60
2018-01-21T15:59:58.274Z,4.50
2018-01-21T16:02:25.746Z,4.50
2018-01-21T16:04:53.217Z,4.50
2018-01-21T16:07:20.694Z,4.50
2018-01-21T16:09:48.934Z,4.40
2018-01-21T16:12:16.465Z,4.40
2018-01-21T16:14:44.681Z,4.40
2018-01-21T16:17:12.166Z,4.40
2018-01-21T16:19:39.643Z,4.30
2018-01-21T16:22:07.115Z,4.30
2018-01-21T16:24:34.607Z,4.30
2018-01-21T16:27:02.057Z,4.30
2018-01-21T16:29:29.552Z,4.20
2018-01-21T16:31:57.014Z,4.20
2018-01-21T16:34:26.964Z,4.20
2018-01-21T16:36:56.756Z,4.10
2018-01-21T16:39:24.229Z,4.10
2018-01-21T16:41:51.711Z,4.00
2018-01-21T16:44:19.188Z,4.00
2018-01-21T16:46:46.666Z,3.90
2018-01-21T16:49:14.174Z,3.90
2018-01-21T16:51:41.641Z,3.80
2018-01-21T16:54:10.080Z,3.80
2018-01-21T16:56:37.822Z,3.80
2018-01-21T16:59:05.284Z,3.70
2018-01-21T17:01:32.758Z,3.70
2018-01-21T17:04:00.221Z,3.70
2018-01-21T17:06:28.521Z,3.60
2018-01-21T17:08:56.781Z,3.60
2018-01-21T17:11:25.999Z,3.60
2018-01-21T17:13:53.483Z,3.60
2018-01-21T17:16:21.714Z,3.60
2018-01-21T17:18:49.177Z,3.60
2018-01-21T17:21:16.667Z,3.60
2018-01-21T17:23:44.136Z,3.60
2018-01-21T17:26:12.390Z,3.60
2018-01-21T17:28:39.996Z,3.60
2018-01-21T17:31:07.481Z,3.60
2018-01-21T17:33:34.945Z,3.50
2018-01-21T17:36:02.429Z,3.60
2018-01-21T17:38:30.669Z,3.50
2018-01-21T17:40:58.134Z,3.50
2018-01-21T17:43:25.622Z,3.40
2018-01-21T17:45:53.846Z,3.30
2018-01-21T17:48:21.348Z,3.30
2018-01-21T17:50:49.582Z,3.30
2018-01-21T17:53:17.078Z,3.30
2018-01-21T17:55:45.325Z,3.10
2018-01-21T17:58:12.827Z,3.10
2018-01-21T18:00:40.306Z,3.10
2018-01-21T18:03:07.765Z,3.10
2018-01-21T18:05:35.255Z,3.10
2018-01-21T18:08:02.729Z,3.00
2018-01-21T18:10:30.202Z,2.90
2018-01-21T18:12:58.440Z,2.70
2018-01-21T18:15:26.677Z,2.60
2018-01-21T18:17:54.202Z,2.60
2018-01-21T18:20:21.633Z,2.60
2018-01-21T18:22:49.154Z,2.60
2018-01-21T18:25:16.634Z,2.70
2018-01-21T18:27:44.122Z,2.70
2018-01-21T18:30:12.388Z,2.80
2018-01-21T18:32:39.855Z,2.70
2018-01-21T18:35:08.109Z,2.60
2018-01-21T18:37:35.597Z,2.60
2018-01-21T18:40:03.837Z,2.60
2018-01-21T18:42:31.338Z,2.60
2018-01-21T18:44:58.818Z,2.60
2018-01-21T18:47:26.313Z,2.60
2018-01-21T18:49:53.791Z,2.60
2018-01-21T18:52:21.262Z,2.60
2018-01-21T18:54:48.845Z,2.60
2018-01-21T18:57:16.313Z,2.60
2018-01-21T18:59:43.817Z,2.60
2018-01-21T19:02:12.070Z,2.60
2018-01-21T19:04:39.538Z,2.50
2018-01-21T19:07:07.069Z,2.70
2018-01-21T19:09:35.323Z,2.80
2018-01-21T19:12:02.791Z,2.70
2018-01-21T19:14:30.261Z,2.80
2018-01-21T19:16:57.742Z,2.70
2018-01-21T19:19:25.214Z,2.70
2018-01-21T19:21:53.466Z,2.70
2018-01-21T19:24:22.461Z,2.70
2018-01-21T19:26:49.948Z,2.70
2018-01-21T19:29:18.182Z,2.70
2018-01-21T19:31:45.678Z,2.70
2018-01-21T19:34:13.918Z,2.70
2018-01-21T19:36:41.409Z,2.70
2018-01-21T19:39:11.339Z,2.70
2018-01-21T19:41:40.637Z,2.70
2018-01-21T19:44:08.951Z,2.70
2018-01-21T19:46:44.566Z,2.70
2018-01-21T19:49:12.038Z,2.70
2018-01-21T19:51:39.566Z,2.70
2018-01-21T19:54:07.000Z,2.70
2018-01-21T19:56:34.482Z,2.80
2018-01-21T19:59:02.719Z,2.80
2018-01-21T20:01:30.202Z,2.80
2018-01-21T20:03:58.443Z,2.90
2018-01-21T20:06:25.901Z,2.90
2018-01-21T20:08:53.378Z,2.90
2018-01-21T20:11:21.658Z,2.90
2018-01-21T20:13:49.892Z,3.00
2018-01-21T20:16:17.344Z,2.90
2018-01-21T20:18:44.818Z,2.90
2018-01-21T20:21:12.290Z,3.00
2018-01-21T20:23:40.566Z,2.90
2018-01-21T20:26:08.049Z,2.90
2018-01-21T20:28:36.304Z,2.90
2018-01-21T20:31:03.786Z,2.90
2018-01-21T20:33:31.274Z,2.90
2018-01-21T20:35:58.746Z,2.90
2018-01-21T20:38:26.218Z,2.80
2018-01-21T20:40:53.689Z,2.90
2018-01-21T20:43:21.950Z,2.90
2018-01-21T20:45:49.470Z,2.90
2018-01-21T20:48:16.941Z,2.90
2018-01-21T20:50:44.410Z,2.90
2018-01-21T20:53:17.731Z,2.90
2018-01-21T20:55:45.189Z,2.80
2018-01-21T20:58:13.430Z,2.90
2018-01-21T21:00:40.921Z,2.80
2018-01-21T21:03:09.162Z,2.80
2018-01-21T21:05:36.634Z,2.80
2018-01-21T21:08:04.114Z,2.90
2018-01-21T21:10:32.346Z,2.90
2018-01-21T21:12:59.814Z,2.90
2018-01-21T21:15:28.784Z,2.80
2018-01-21T21:17:56.313Z,2.80
2018-01-21T21:20:23.774Z,2.90
2018-01-21T21:22:51.245Z,2.90
2018-01-21T21:25:18.694Z,2.80
2018-01-21T21:27:46.194Z,2.80
2018-01-21T21:30:13.671Z,2.80
2018-01-21T21:32:41.885Z,2.80
2018-01-21T21:35:09.375Z,2.80
2018-01-21T21:37:36.831Z,2.90
2018-01-21T21:40:04.314Z,2.90
2018-01-21T21:42:32.538Z,2.90
2018-01-21T21:45:00.031Z,2.80
2018-01-21T21:47:27.512Z,2.90
2018-01-21T21:49:55.766Z,2.90
2018-01-21T21:52:23.274Z,2.90
2018-01-21T21:54:50.743Z,2.90
2018-01-21T21:57:18.211Z,2.90
2018-01-21T21:59:45.745Z,3.00
2018-01-21T22:02:13.212Z,3.00
2018-01-21T22:04:40.665Z,3.00
2018-01-21T22:07:08.157Z,3.00
2018-01-21T22:09:35.650Z,3.00
2018-01-21T22:12:03.118Z,3.00
2018-01-21T22:14:30.595Z,2.90
2018-01-21T22:16:58.142Z,2.90
2018-01-21T22:19:25.750Z,2.90
2018-01-21T22:21:53.223Z,2.80
2018-01-21T22:24:20.704Z,2.70
2018-01-21T22:26:48.180Z,2.70
2018-01-21T22:29:15.641Z,2.70
2018-01-21T22:31:43.102Z,2.60
2018-01-21T22:34:10.647Z,2.60
2018-01-21T22:36:38.114Z,2.50
2018-01-21T22:39:05.569Z,2.40
2018-01-21T22:41:33.052Z,2.40
2018-01-21T22:44:00.518Z,2.30
2018-01-21T22:46:27.990Z,2.30
2018-01-21T22:48:56.229Z,2.20
2018-01-21T22:51:23.697Z,2.20
2018-01-21T22:53:51.185Z,2.20
2018-01-21T22:56:19.410Z,2.20
2018-01-21T22:58:46.946Z,2.20
2018-01-21T23:01:14.506Z,2.10
2018-01-21T23:03:42.011Z,2.10
2018-01-21T23:06:09.521Z,2.10
2018-01-21T23:08:36.994Z,2.00
2018-01-21T23:11:04.477Z,2.00
2018-01-21T23:13:33.454Z,2.00
2018-01-21T23:16:00.941Z,2.00
2018-01-21T23:18:29.189Z,2.00
2018-01-21T23:21:04.503Z,1.90
2018-01-21T23:23:31.981Z,1.90
2018-01-21T23:25:59.442Z,1.80
2018-01-21T23:28:26.922Z,1.80
2018-01-21T23:30:54.385Z,1.70
2018-01-21T23:33:22.629Z,1.70
2018-01-21T23:35:50.123Z,1.70
2018-01-21T23:38:18.343Z,1.70
2018-01-21T23:40:45.887Z,1.70
2018-01-21T23:43:13.342Z,1.70
2018-01-21T23:45:40.825Z,1.70
2018-01-21T23:48:08.299Z,1.70
2018-01-21T23:50:35.778Z,1.70
2018-01-21T23:53:04.010Z,1.70
2018-01-21T23:55:31.477Z,1.70
2018-01-21T23:57:58.962Z,1.70
